Time;durP1;ratioP1;P1;durP2;ratioP2;P2;SDS_P1;SDS_P2;PMS_P1;PMS_P2;Temp;Humidity;BMP_temperature;BMP_pressure;BME280_temperature;BME280_humidity;BME280_pressure;Samples;Min_cycle;Max_cycle;Signal;HPM_P1;HPM_P2
2021/04/09 00:00:32;;;;;;;2.83;1.57;;;4.50;98.30;;;;;;5072616;28;20519;-48
2021/04/09 00:02:59;;;;;;;3.23;2.10;;;4.40;98.40;;;;;;5073386;28;20457;-48
2021/04/09 00:05:27;;;;;;;2.37;1.77;;;4.40;98.20;;;;;;5073068;28;20445;-48
2021/04/09 00:07:53;;;;;;;5.07;2.20;;;4.50;97.70;;;;;;5071509;28;20456;-48
2021/04/09 00:10:21;;;;;;;2.77;1.87;;;4.60;97.70;;;;;;5071314;28;20831;-49
2021/04/09 00:12:48;;;;;;;2.30;1.77;;;4.50;97.90;;;;;;5072830;28;20477;-48
2021/04/09 00:15:15;;;;;;;2.40;1.50;;;4.40;97.80;;;;;;5072314;28;20458;-48
2021/04/09 00:17:42;;;;;;;3.00;1.77;;;4.30;98.10;;;;;;5072524;28;20449;-48
2021/04/09 00:20:12;;;;;;;4.60;1.73;;;4.40;97.90;;;;;;5072390;28;20450;-48
2021/04/09 00:22:39;;;;;;;5.40;2.00;;;4.50;97.20;;;;;;5072298;28;20461;-48
2021/04/09 00:25:07;;;;;;;3.40;2.13;;;4.50;97.40;;;;;;5072487;28;20476;-48
2021/04/09 00:27:34;;;;;;;3.83;1.73;;;4.50;97.60;;;;;;5072372;28;20967;-48
2021/04/09 00:30:00;;;;;;;4.47;1.70;;;4.50;97.70;;;;;;5071812;28;20521;-48
2021/04/09 00:32:30;;;;;;;2.60;2.00;;;4.40;97.90;;;;;;5068076;28;20503;-48
2021/04/09 00:34:56;;;;;;;2.30;1.90;;;4.40;97.90;;;;;;5069456;28;20460;-48
2021/04/09 00:37:23;;;;;;;2.37;1.60;;;4.30;97.90;;;;;;5071783;28;20485;-48
2021/04/09 00:39:50;;;;;;;1.60;1.50;;;4.30;98.10;;;;;;5071879;28;20991;-48
2021/04/09 00:42:18;;;;;;;2.10;1.90;;;4.20;98.20;;;;;;5071412;28;20462;-47
2021/04/09 00:44:45;;;;;;;3.80;1.90;;;4.20;98.40;;;;;;5094690;22;20588;-51
2021/04/09 00:47:11;;;;;;;4.00;1.70;;;4.30;98.10;;;;;;5071749;28;20796;-51
2021/04/09 00:49:38;;;;;;;1.70;1.60;;;4.10;98.30;;;;;;5070875;28;20449;-51
2021/04/09 00:52:06;;;;;;;3.53;1.80;;;4.10;98.40;;;;;;5071537;28;20442;-51
2021/04/09 00:54:33;;;;;;;2.13;1.40;;;4.20;98.20;;;;;;5064360;28;20995;-51
2021/04/09 00:57:02;;;;;;;2.20;1.53;;;4.30;97.90;;;;;;5052482;28;20487;-51
2021/04/09 00:59:30;;;;;;;4.80;1.50;;;4.20;97.40;;;;;;5058209;28;20459;-51
2021/04/09 01:01:56;;;;;;;1.60;1.50;;;4.10;98.10;;;;;;5052305;28;20458;-51
2021/04/09 01:04:23;;;;;;;2.47;1.30;;;4.10;97.80;;;;;;5052016;28;20474;-51
2021/04/09 01:06:50;;;;;;;2.40;1.57;;;4.10;97.90;;;;;;5051869;28;20437;-51
2021/04/09 01:09:16;;;;;;;2.20;1.10;;;4.20;97.80;;;;;;5051858;28;20483;-51
2021/04/09 01:11:43;;;;;;;1.47;1.20;;;4.20;97.60;;;;;;5052336;28;20830;-51
2021/04/09 01:14:10;;;;;;;2.40;1.30;;;4.10;97.70;;;;;;5051780;28;20607;-51
2021/04/09 01:16:44;;;;;;;1.97;1.30;;;4.10;97.70;;;;;;5052946;28;20478;-51
2021/04/09 01:19:30;;;;;;;2.60;1.37;;;4.30;97.30;;;;;;5051875;28;20948;-51
2021/04/09 01:22:01;;;;;;;12.90;1.53;;;4.10;97.30;;;;;;5040648;28;20539;-50
2021/04/09 01:25:06;;;;;;;1.53;1.20;;;4.00;97.80;;;;;;5055253;28;20465;-51
2021/04/09 01:28:09;;;;;;;2.00;1.43;;;4.00;97.80;;;;;;5050336;28;20450;-51
2021/04/09 01:31:04;;;;;;;1.77;1.47;;;4.30;97.40;;;;;;5051631;28;20452;-50
2021/04/09 01:33:36;;;;;;;6.50;2.20;;;4.50;97.40;;;;;;5051863;28;20454;-51
2021/04/09 01:36:08;;;;;;;3.60;1.83;;;4.40;97.40;;;;;;5051658;28;20856;-50
2021/04/09 01:38:39;;;;;;;2.03;1.53;;;4.30;97.40;;;;;;5041932;28;20450;-51
2021/04/09 01:41:07;;;;;;;2.90;1.63;;;4.40;97.20;;;;;;5051379;28;20453;-51
2021/04/09 01:43:35;;;;;;;2.60;1.70;;;4.40;97.30;;;;;;5051241;28;20449;-51
2021/04/09 01:46:03;;;;;;;3.87;1.47;;;4.40;97.20;;;;;;5051114;28;20547;-51
2021/04/09 01:48:31;;;;;;;2.00;1.57;;;4.30;97.50;;;;;;5039646;28;20472;-51
2021/04/09 01:50:59;;;;;;;3.90;1.80;;;4.40;97.30;;;;;;5050959;28;20449;-51
2021/04/09 01:53:28;;;;;;;4.23;1.73;;;4.30;97.60;;;;;;5064067;28;20454;-51
2021/04/09 01:55:56;;;;;;;3.20;1.77;;;4.10;97.70;;;;;;5059290;28;20481;-50
2021/04/09 01:58:23;;;;;;;1.50;1.40;;;4.10;97.50;;;;;;5050754;28;20955;-50
2021/04/09 02:00:51;;;;;;;2.80;1.60;;;4.00;97.90;;;;;;5051482;28;20453;-50
2021/04/09 02:03:22;;;;;;;3.13;1.43;;;4.00;97.50;;;;;;5051419;28;20450;-51
2021/04/09 02:05:50;;;;;;;1.70;1.60;;;4.20;97.40;;;;;;5051490;28;20561;-51
2021/04/09 02:08:18;;;;;;;3.53;1.90;;;4.10;97.40;;;;;;5050985;28;20459;-51
2021/04/09 02:10:46;;;;;;;4.53;1.93;;;4.20;97.50;;;;;;5051662;28;20845;-51
2021/04/09 02:13:13;;;;;;;3.60;1.70;;;4.20;97.30;;;;;;5051308;28;20459;-51
2021/04/09 02:15:39;;;;;;;1.80;1.70;;;4.10;97.20;;;;;;5051066;28;20482;-51
2021/04/09 02:18:06;;;;;;;2.80;1.97;;;4.00;97.30;;;;;;5050976;28;20445;-51
2021/04/09 02:20:33;;;;;;;1.40;1.30;;;4.00;97.30;;;;;;5051000;28;20448;-51
2021/04/09 02:23:00;;;;;;;3.47;1.50;;;4.10;97.40;;;;;;5050752;28;20459;-50
2021/04/09 02:25:26;;;;;;;2.27;1.70;;;4.10;97.30;;;;;;5052754;28;20483;-51
2021/04/09 02:27:53;;;;;;;1.90;1.70;;;4.20;97.60;;;;;;5051216;28;20467;-50
2021/04/09 02:30:22;;;;;;;2.00;1.63;;;4.20;97.30;;;;;;5051525;28;20512;-50
2021/04/09 02:32:48;;;;;;;3.73;1.50;;;4.20;97.20;;;;;;5050691;28;20453;-50
2021/04/09 02:35:16;;;;;;;2.60;1.30;;;4.20;96.80;;;;;;5051279;28;20471;-51
2021/04/09 02:37:46;;;;;;;1.97;1.10;;;4.20;96.50;;;;;;5052164;28;20532;-50
2021/04/09 02:40:17;;;;;;;2.30;1.10;;;4.10;96.70;;;;;;5056586;28;20455;-51
2021/04/09 02:42:46;;;;;;;3.43;1.43;;;4.30;96.40;;;;;;5066790;28;20450;-50
2021/04/09 02:45:14;;;;;;;1.77;1.37;;;4.30;96.20;;;;;;5055555;28;20476;-51
2021/04/09 02:47:43;;;;;;;4.40;1.50;;;4.30;96.40;;;;;;5052763;28;20504;-50
2021/04/09 02:50:14;;;;;;;2.40;1.50;;;4.20;96.40;;;;;;5071366;28;20508;-50
2021/04/09 02:52:46;;;;;;;2.70;1.70;;;4.20;96.60;;;;;;5055230;28;20507;-51
2021/04/09 02:55:17;;;;;;;2.20;1.33;;;4.20;96.70;;;;;;5051168;28;20478;-51
2021/04/09 02:57:46;;;;;;;1.93;1.30;;;4.40;95.50;;;;;;5050600;28;21003;-50
2021/04/09 03:00:14;;;;;;;1.83;1.43;;;4.50;95.00;;;;;;5051054;28;20547;-51
2021/04/09 03:02:41;;;;;;;3.00;1.40;;;4.50;94.90;;;;;;5051783;28;20455;-51
2021/04/09 03:05:10;;;;;;;1.97;1.70;;;4.50;95.20;;;;;;5059287;28;20470;-51
2021/04/09 03:07:39;;;;;;;6.60;1.80;;;4.50;95.20;;;;;;5058835;28;20456;-51
2021/04/09 03:10:08;;;;;;;2.50;1.70;;;4.40;95.50;;;;;;5071635;28;20458;-51
2021/04/09 03:12:35;;;;;;;4.00;2.10;;;4.50;95.60;;;;;;5057207;28;20453;-50
2021/04/09 03:15:04;;;;;;;4.23;3.27;;;4.60;95.30;;;;;;5054259;28;20474;-50
2021/04/09 03:17:36;;;;;;;2.67;1.90;;;4.70;94.90;;;;;;5054213;28;21081;-51
2021/04/09 03:20:04;;;;;;;4.03;1.90;;;4.70;95.50;;;;;;5053725;28;20473;-50
2021/04/09 03:22:30;;;;;;;3.47;2.03;;;4.30;95.60;;;;;;5056907;28;20463;-50
2021/04/09 03:24:57;;;;;;;3.00;1.73;;;4.40;95.40;;;;;;5068952;28;20477;-51
2021/04/09 03:27:23;;;;;;;3.37;1.77;;;4.50;94.90;;;;;;5059712;28;20978;-50
2021/04/09 03:29:51;;;;;;;5.20;1.93;;;4.60;94.90;;;;;;5054082;28;20449;-50
2021/04/09 03:32:17;;;;;;;3.13;2.00;;;4.50;95.60;;;;;;5053925;28;20876;-50
2021/04/09 03:34:44;;;;;;;2.00;1.50;;;4.50;95.10;;;;;;5063084;28;20500;-51
2021/04/09 03:37:11;;;;;;;2.60;1.50;;;4.40;95.10;;;;;;5056590;28;21011;-51
2021/04/09 03:39:38;;;;;;;1.93;1.73;;;4.30;95.20;;;;;;5062444;28;20450;-51
2021/04/09 03:42:05;;;;;;;2.23;1.80;;;4.40;95.00;;;;;;5056239;28;20802;-51
2021/04/09 03:44:32;;;;;;;3.10;1.50;;;4.30;94.60;;;;;;5067786;28;20477;-50
2021/04/09 03:46:59;;;;;;;1.80;1.70;;;4.40;94.70;;;;;;5040525;28;20448;-50
2021/04/09 03:49:26;;;;;;;2.30;2.10;;;4.40;94.30;;;;;;5051253;28;20455;-51
2021/04/09 03:51:52;;;;;;;2.37;1.67;;;4.40;94.80;;;;;;5057783;28;20458;-51
2021/04/09 03:54:19;;;;;;;1.60;1.50;;;4.40;94.40;;;;;;5053609;28;20480;-51
2021/04/09 03:56:45;;;;;;;2.30;1.80;;;4.50;94.40;;;;;;5053710;28;20516;-50
2021/04/09 03:59:12;;;;;;;3.90;2.07;;;4.40;94.40;;;;;;5053504;28;20455;-51
2021/04/09 04:01:38;;;;;;;9.93;5.97;;;4.20;95.00;;;;;;5053234;28;20504;-50
2021/04/09 04:04:06;;;;;;;7.40;2.93;;;4.00;95.60;;;;;;5053047;28;20477;-50
2021/04/09 04:06:32;;;;;;;24.57;12.97;;;3.90;95.90;;;;;;5053641;28;20897;-50
2021/04/09 04:08:59;;;;;;;14.57;9.23;;;3.90;95.90;;;;;;5055310;28;20451;-50
2021/04/09 04:11:28;;;;;;;2.67;1.90;;;3.80;96.00;;;;;;5054391;28;20451;-50
2021/04/09 04:13:54;;;;;;;6.20;3.73;;;3.60;96.50;;;;;;5052798;28;20443;-50
2021/04/09 04:16:21;;;;;;;5.57;2.40;;;3.80;96.50;;;;;;5052086;28;20901;-50
2021/04/09 04:18:47;;;;;;;2.80;1.87;;;3.90;96.10;;;;;;5052708;28;20947;-50
2021/04/09 04:21:15;;;;;;;2.30;1.93;;;4.00;95.00;;;;;;5048572;28;20459;-50
2021/04/09 04:23:41;;;;;;;2.40;1.70;;;4.00;95.10;;;;;;5052807;28;20486;-50
2021/04/09 04:26:08;;;;;;;2.07;1.40;;;4.20;94.00;;;;;;5052550;28;20508;-50
2021/04/09 04:28:36;;;;;;;3.30;1.70;;;4.40;93.10;;;;;;5052555;28;20447;-50
2021/04/09 04:31:02;;;;;;;2.63;1.93;;;4.50;93.30;;;;;;5052148;28;20451;-50
2021/04/09 04:33:29;;;;;;;3.40;2.40;;;4.80;93.40;;;;;;5052447;28;20476;-50
2021/04/09 04:35:55;;;;;;;2.57;1.73;;;4.80;93.30;;;;;;5052566;28;20524;-50
2021/04/09 04:38:23;;;;;;;4.20;1.97;;;4.90;92.70;;;;;;5050225;28;20451;-50
2021/04/09 04:40:50;;;;;;;10.10;6.10;;;4.90;92.30;;;;;;5056771;28;20827;-50
2021/04/09 04:43:17;;;;;;;16.83;7.17;;;4.90;92.40;;;;;;5055344;28;20464;-50
2021/04/09 04:45:44;;;;;;;17.43;7.70;;;4.80;92.80;;;;;;5059851;28;20476;-50
2021/04/09 04:48:10;;;;;;;4.13;2.70;;;4.70;93.80;;;;;;5054871;28;21013;-50
2021/04/09 04:50:37;;;;;;;4.50;3.00;;;4.50;94.30;;;;;;5054868;28;20949;-50
2021/04/09 04:53:04;;;;;;;7.50;4.93;;;4.40;94.80;;;;;;5054964;28;20463;-50
2021/04/09 04:55:32;;;;;;;4.97;3.47;;;4.10;95.20;;;;;;5061201;28;20472;-50
2021/04/09 04:57:58;;;;;;;16.53;8.00;;;4.00;95.00;;;;;;5058373;28;20491;-50
2021/04/09 05:00:25;;;;;;;3.70;2.50;;;3.90;95.20;;;;;;5054410;28;20451;-50
2021/04/09 05:02:53;;;;;;;6.83;3.87;;;3.90;94.30;;;;;;5055345;28;20816;-50
2021/04/09 05:05:19;;;;;;;6.00;3.63;;;3.90;95.00;;;;;;5055085;28;20561;-50
2021/04/09 05:07:46;;;;;;;2.60;2.40;;;4.20;94.80;;;;;;5055428;28;20932;-50
2021/04/09 05:10:13;;;;;;;3.47;2.30;;;4.20;94.10;;;;;;5055512;28;20442;-50
2021/04/09 05:12:43;;;;;;;5.33;2.30;;;4.30;94.50;;;;;;5053913;28;20964;-49
2021/04/09 05:15:11;;;;;;;3.87;2.40;;;4.40;93.80;;;;;;5054708;28;20563;-50
2021/04/09 05:17:41;;;;;;;8.60;2.90;;;4.60;93.50;;;;;;5051539;28;20581;-50
2021/04/09 05:20:08;;;;;;;8.80;2.10;;;4.80;93.70;;;;;;5051499;28;20451;-50
2021/04/09 05:22:35;;;;;;;2.30;2.10;;;4.90;93.20;;;;;;5051671;28;20470;-50
2021/04/09 05:25:02;;;;;;;3.83;2.47;;;5.10;92.90;;;;;;5050721;28;21004;-51
2021/04/09 05:27:28;;;;;;;5.07;2.50;;;5.00;93.10;;;;;;5050923;28;20444;-50
2021/04/09 05:29:56;;;;;;;3.03;2.07;;;5.10;93.10;;;;;;5050877;28;20451;-50
2021/04/09 05:32:22;;;;;;;5.13;2.57;;;5.20;92.00;;;;;;5051023;28;20456;-51
2021/04/09 05:34:49;;;;;;;6.72;3.00;;;5.40;92.00;;;;;;5048238;28;20452;-51
2021/04/09 05:37:15;;;;;;;6.27;2.77;;;5.40;91.60;;;;;;5050720;28;20221;-50
2021/04/09 05:39:42;;;;;;;6.23;4.03;;;5.60;92.10;;;;;;5049606;28;20444;-51
2021/04/09 05:42:09;;;;;;;4.37;3.43;;;5.80;92.70;;;;;;5050515;28;20440;-50
2021/04/09 05:44:36;;;;;;;20.83;10.57;;;5.90;92.80;;;;;;5051142;28;20495;-51
2021/04/09 05:47:07;;;;;;;33.20;16.83;;;6.30;92.50;;;;;;5051178;28;20439;-51
2021/04/09 05:49:33;;;;;;;18.33;11.93;;;7.10;92.30;;;;;;5049637;28;20479;-51
2021/04/09 05:52:01;;;;;;;13.30;7.43;;;8.10;91.60;;;;;;5053844;28;20998;-52
2021/04/09 05:54:28;;;;;;;17.13;9.77;;;8.50;90.70;;;;;;5051417;28;20479;-52
2021/04/09 05:56:54;;;;;;;11.53;6.40;;;8.70;90.20;;;;;;5051482;28;20871;-52
2021/04/09 05:59:21;;;;;;;22.33;9.73;;;9.50;88.40;;;;;;5052165;28;20510;-52
2021/04/09 06:01:47;;;;;;;15.23;8.53;;;9.70;87.70;;;;;;5051091;28;20451;-51
2021/04/09 06:04:14;;;;;;;12.10;7.73;;;9.70;87.00;;;;;;5050626;28;20483;-52
2021/04/09 06:06:41;;;;;;;12.90;7.83;;;9.80;87.00;;;;;;5051311;28;20450;-52
2021/04/09 06:09:08;;;;;;;5.77;2.50;;;9.40;88.40;;;;;;5051408;28;20597;-52
2021/04/09 06:11:35;;;;;;;2.97;1.80;;;9.30;84.30;;;;;;5051351;28;20455;-51
2021/04/09 06:14:01;;;;;;;4.97;2.03;;;9.10;81.70;;;;;;5044190;28;20513;-51
2021/04/09 06:16:28;;;;;;;2.80;1.90;;;9.00;83.10;;;;;;5050641;28;20528;-51
2021/04/09 06:18:54;;;;;;;4.30;2.13;;;9.00;81.80;;;;;;5050607;28;20499;-51
2021/04/09 06:21:22;;;;;;;8.37;3.30;;;9.20;82.80;;;;;;5051141;28;20450;-51
2021/04/09 06:23:48;;;;;;;4.73;2.70;;;9.20;83.20;;;;;;5051243;28;20469;-51
2021/04/09 06:26:15;;;;;;;3.60;2.47;;;9.60;81.50;;;;;;5051085;28;20453;-51
2021/04/09 06:28:41;;;;;;;6.37;2.80;;;9.80;81.90;;;;;;5049858;28;21062;-52
2021/04/09 06:31:08;;;;;;;7.50;3.47;;;10.20;77.50;;;;;;5051113;28;20455;-51
2021/04/09 06:33:35;;;;;;;8.30;2.77;;;10.50;76.60;;;;;;5050748;28;20444;-51
2021/04/09 06:36:01;;;;;;;4.50;2.20;;;10.60;77.10;;;;;;5050542;28;20526;-51
2021/04/09 06:38:29;;;;;;;3.53;1.93;;;10.80;78.60;;;;;;5054659;28;20443;-52
2021/04/09 06:40:56;;;;;;;2.83;2.33;;;11.20;76.60;;;;;;5057193;28;20972;-51
2021/04/09 06:43:23;;;;;;;4.03;2.90;;;11.30;78.00;;;;;;5059337;28;20446;-52
2021/04/09 06:45:50;;;;;;;3.27;2.20;;;11.60;77.50;;;;;;5079674;22;20491;-47
2021/04/09 06:48:16;;;;;;;3.40;2.17;;;11.60;76.10;;;;;;5053911;28;20489;-48
2021/04/09 06:50:43;;;;;;;6.03;2.43;;;11.60;73.90;;;;;;5053011;28;20447;-48
2021/04/09 06:53:12;;;;;;;3.27;2.57;;;11.50;74.70;;;;;;5054750;28;20451;-48
2021/04/09 06:55:42;;;;;;;4.20;3.00;;;11.40;72.40;;;;;;5053746;28;20474;-48
2021/04/09 06:58:12;;;;;;;3.40;2.57;;;11.20;73.50;;;;;;5053971;28;20486;-49
2021/04/09 07:00:39;;;;;;;7.07;3.20;;;11.20;76.40;;;;;;5054307;28;20455;-48
2021/04/09 07:03:09;;;;;;;6.73;3.33;;;11.50;75.90;;;;;;5054190;28;20470;-49
2021/04/09 07:05:37;;;;;;;5.33;3.00;;;11.90;76.30;;;;;;5052307;28;20498;-49
2021/04/09 07:08:04;;;;;;;3.80;2.97;;;12.10;74.20;;;;;;5039529;28;20554;-48
2021/04/09 07:10:30;;;;;;;4.00;3.63;;;12.20;76.00;;;;;;5053513;28;20443;-48
2021/04/09 07:13:05;;;;;;;6.73;3.50;;;12.30;73.80;;;;;;5043093;28;20447;-49
2021/04/09 07:15:40;;;;;;;5.20;2.83;;;12.30;74.40;;;;;;5052743;28;21003;-49
2021/04/09 07:18:07;;;;;;;5.43;3.20;;;12.50;73.60;;;;;;5041149;28;20501;-48
2021/04/09 07:20:35;;;;;;;5.03;3.20;;;12.60;74.90;;;;;;5052960;28;20454;-49
2021/04/09 07:23:03;;;;;;;4.33;2.90;;;12.70;71.60;;;;;;5047409;28;20451;-48
2021/04/09 07:25:32;;;;;;;3.23;2.90;;;12.70;71.00;;;;;;5053895;28;20472;-48
2021/04/09 07:28:14;;;;;;;3.57;2.60;;;13.20;71.60;;;;;;5053534;28;20863;-49
2021/04/09 07:30:43;;;;;;;4.43;3.00;;;13.10;73.40;;;;;;5034209;28;20445;-49
2021/04/09 07:33:10;;;;;;;4.90;2.67;;;13.10;69.80;;;;;;5052525;28;20440;-49
2021/04/09 07:35:51;;;;;;;5.00;3.10;;;13.30;72.50;;;;;;5053874;28;20471;-49
2021/04/09 07:38:23;;;;;;;3.87;2.97;;;13.50;70.20;;;;;;5042185;28;20484;-49
2021/04/09 07:40:58;;;;;;;4.63;2.80;;;14.20;69.10;;;;;;5037676;28;20450;-49
2021/04/09 07:43:27;;;;;;;5.80;3.10;;;14.50;70.00;;;;;;5053709;28;20443;-49
2021/04/09 07:45:56;;;;;;;2.93;2.37;;;15.10;68.20;;;;;;5053318;28;21062;-49
2021/04/09 07:48:29;;;;;;;6.40;2.77;;;15.50;68.40;;;;;;5052500;28;21028;-49
2021/04/09 07:50:56;;;;;;;3.23;2.53;;;15.80;70.60;;;;;;5053486;28;21045;-49
2021/04/09 07:53:41;;;;;;;4.10;3.00;;;16.10;67.80;;;;;;5049741;28;21024;-49
2021/04/09 07:56:09;;;;;;;7.30;4.97;;;16.20;66.90;;;;;;5046583;28;20554;-49
2021/04/09 07:58:38;;;;;;;12.20;6.07;;;16.00;73.90;;;;;;5051955;28;20447;-49
2021/04/09 08:01:05;;;;;;;7.60;5.37;;;15.30;82.20;;;;;;5047470;28;20457;-49
2021/04/09 08:03:34;;;;;;;6.37;5.73;;;15.70;82.20;;;;;;5033597;28;20483;-49
2021/04/09 08:06:08;;;;;;;8.00;6.30;;;15.60;83.10;;;;;;5037972;28;21004;-49
2021/04/09 08:08:35;;;;;;;6.83;5.70;;;15.50;86.10;;;;;;5044882;28;20973;-49
2021/04/09 08:11:19;;;;;;;7.00;6.10;;;16.00;84.90;;;;;;5053411;28;20455;-49
2021/04/09 08:13:57;;;;;;;9.00;6.03;;;16.20;85.40;;;;;;5053210;28;20452;-49
2021/04/09 08:16:28;;;;;;;6.60;5.90;;;16.10;87.30;;;;;;5052568;28;20850;-49
2021/04/09 08:18:58;;;;;;;8.40;6.20;;;15.00;87.50;;;;;;5050539;28;20461;-48
2021/04/09 08:21:27;;;;;;;10.10;6.07;;;15.30;85.60;;;;;;5052120;28;20474;-48
2021/04/09 08:23:55;;;;;;;8.90;4.83;;;14.00;84.90;;;;;;5050463;28;20891;-48
2021/04/09 08:26:22;;;;;;;6.33;4.50;;;13.60;80.80;;;;;;5047866;28;20456;-48
2021/04/09 08:28:51;;;;;;;9.23;5.93;;;14.50;77.60;;;;;;5052634;28;20475;-48
2021/04/09 08:31:18;;;;;;;8.53;6.20;;;12.10;92.30;;;;;;5050186;28;20948;-48
2021/04/09 08:33:46;;;;;;;10.93;6.37;;;12.50;92.90;;;;;;5032956;28;20449;-49
2021/04/09 08:36:13;;;;;;;8.67;6.50;;;13.70;91.50;;;;;;5032157;28;20942;-48
2021/04/09 08:38:40;;;;;;;8.93;6.60;;;14.30;90.40;;;;;;5035051;28;20944;-49
2021/04/09 08:41:06;;;;;;;10.30;6.27;;;14.70;91.30;;;;;;5052066;28;20825;-49
2021/04/09 08:43:33;;;;;;;10.20;7.10;;;15.10;89.20;;;;;;5046130;28;20455;-49
2021/04/09 08:46:01;;;;;;;7.10;5.80;;;15.90;88.40;;;;;;5049589;28;20495;-49
2021/04/09 08:48:28;;;;;;;9.97;6.70;;;15.70;87.50;;;;;;5052061;28;20451;-48
2021/04/09 08:50:55;;;;;;;8.73;6.33;;;14.70;89.90;;;;;;5047473;28;20463;-49
2021/04/09 08:53:26;;;;;;;9.83;6.87;;;14.70;90.20;;;;;;5048342;28;20448;-48
2021/04/09 08:55:53;;;;;;;7.93;6.70;;;15.40;87.20;;;;;;5032752;28;20527;-48
2021/04/09 08:58:20;;;;;;;8.57;6.40;;;15.80;86.00;;;;;;5032255;28;20481;-49
2021/04/09 09:00:48;;;;;;;9.07;6.00;;;16.60;84.30;;;;;;5031622;28;20460;-49
2021/04/09 09:03:33;;;;;;;7.27;5.20;;;17.20;84.10;;;;;;5032526;28;20456;-49
2021/04/09 09:06:00;;;;;;;7.23;5.90;;;17.80;80.80;;;;;;5032323;28;20460;-49
2021/04/09 09:09:07;;;;;;;6.43;5.50;;;18.10;80.60;;;;;;5032030;28;20499;-49
2021/04/09 09:11:51;;;;;;;6.00;5.40;;;18.00;78.50;;;;;;5025852;28;20460;-49
2021/04/09 09:14:40;;;;;;;5.93;5.33;;;17.60;80.90;;;;;;5032054;28;20590;-49
2021/04/09 09:17:38;;;;;;;6.47;5.67;;;17.60;79.70;;;;;;5032332;28;20488;-49
2021/04/09 09:20:19;;;;;;;6.03;5.40;;;18.30;79.10;;;;;;5037812;28;20551;-49
2021/04/09 09:22:56;;;;;;;7.00;5.53;;;18.80;79.50;;;;;;5052314;28;20451;-49
2021/04/09 09:25:34;;;;;;;7.50;5.87;;;19.30;77.70;;;;;;5052141;28;20816;-49
2021/04/09 09:28:00;;;;;;;6.07;5.47;;;19.60;77.20;;;;;;5051513;28;20448;-49
2021/04/09 09:30:29;;;;;;;6.00;5.40;;;18.90;76.70;;;;;;5051901;28;20452;-49
2021/04/09 09:33:23;;;;;;;5.77;5.27;;;19.20;76.70;;;;;;5051829;28;20452;-49
2021/04/09 09:36:02;;;;;;;7.60;4.90;;;18.60;78.00;;;;;;5050069;28;20848;-49
2021/04/09 09:38:49;;;;;;;6.50;5.10;;;18.00;78.60;;;;;;5051317;28;20483;-49
2021/04/09 09:41:37;;;;;;;5.50;4.60;;;17.70;81.20;;;;;;5051703;28;20454;-49
2021/04/09 09:44:28;;;;;;;5.83;5.27;;;17.90;78.30;;;;;;5051569;28;20444;-49
2021/04/09 09:46:57;;;;;;;5.73;5.13;;;17.20;79.40;;;;;;5051841;28;20522;-49
2021/04/09 09:49:24;;;;;;;8.27;4.60;;;17.40;80.90;;;;;;5051388;28;20498;-49
2021/04/09 09:51:52;;;;;;;9.47;4.53;;;17.80;73.00;;;;;;5046221;28;20441;-49
2021/04/09 09:54:24;;;;;;;5.63;4.43;;;18.20;74.50;;;;;;5031545;28;20985;-49
2021/04/09 09:56:51;;;;;;;6.03;4.63;;;18.40;74.60;;;;;;5031568;28;20492;-49
2021/04/09 09:59:19;;;;;;;6.03;4.20;;;18.30;75.20;;;;;;5031491;28;20467;-49
2021/04/09 10:01:53;;;;;;;5.37;4.43;;;18.40;75.50;;;;;;5031717;28;20506;-49
2021/04/09 10:04:20;;;;;;;5.07;4.37;;;18.00;73.60;;;;;;5039846;28;20463;-49
2021/04/09 10:06:51;;;;;;;9.10;4.93;;;18.50;74.90;;;;;;5050099;28;20474;-49
2021/04/09 10:09:27;;;;;;;4.23;3.60;;;18.40;72.70;;;;;;5038706;28;20453;-49
2021/04/09 10:11:53;;;;;;;9.17;4.33;;;18.60;75.90;;;;;;5033296;28;20497;-49
2021/04/09 10:14:20;;;;;;;4.97;4.00;;;18.70;76.10;;;;;;5035686;28;20468;-49
2021/04/09 10:16:47;;;;;;;6.17;4.03;;;18.50;76.30;;;;;;5035495;28;20491;-49
2021/04/09 10:19:13;;;;;;;4.20;3.80;;;18.40;76.60;;;;;;5045412;28;20447;-50
2021/04/09 10:21:41;;;;;;;4.87;4.40;;;17.40;81.00;;;;;;5045082;28;20462;-50
2021/04/09 10:24:09;;;;;;;7.70;4.10;;;17.40;78.50;;;;;;5055206;28;20475;-49
2021/04/09 10:26:39;;;;;;;5.37;4.03;;;17.70;72.70;;;;;;5055067;28;20932;-49
2021/04/09 10:29:22;;;;;;;9.10;4.70;;;18.00;72.50;;;;;;5054779;28;20452;-49
2021/04/09 10:31:49;;;;;;;4.73;4.13;;;17.50;78.50;;;;;;5052760;28;20863;-49
2021/04/09 10:34:20;;;;;;;18.03;11.27;;;17.40;78.70;;;;;;5054714;28;20490;-49
2021/04/09 10:36:47;;;;;;;11.57;8.00;;;17.40;79.90;;;;;;5048452;28;20993;-49
2021/04/09 10:39:16;;;;;;;11.93;5.50;;;16.90;77.80;;;;;;5034754;28;20945;-49
2021/04/09 10:41:46;;;;;;;11.47;3.77;;;17.10;70.00;;;;;;5039176;28;20448;-49
2021/04/09 10:44:17;;;;;;;3.97;3.47;;;17.40;65.00;;;;;;5054696;28;20526;-49
2021/04/09 10:46:45;;;;;;;5.20;2.90;;;17.60;54.60;;;;;;5054889;28;20450;-49
2021/04/09 10:49:13;;;;;;;6.50;3.40;;;17.60;53.30;;;;;;5054609;28;20448;-49
2021/04/09 10:51:41;;;;;;;5.50;3.20;;;17.60;55.00;;;;;;5054015;28;20447;-49
2021/04/09 10:54:09;;;;;;;6.10;3.40;;;17.60;58.70;;;;;;5034485;28;20471;-49
2021/04/09 10:56:35;;;;;;;5.70;3.20;;;17.70;57.50;;;;;;5045067;28;20505;-49
2021/04/09 10:59:07;;;;;;;4.07;3.20;;;17.90;57.30;;;;;;5054708;28;20451;-49
2021/04/09 11:01:35;;;;;;;4.90;3.20;;;18.00;53.50;;;;;;5054813;28;20451;-49
2021/04/09 11:04:02;;;;;;;5.00;3.33;;;18.10;58.00;;;;;;5054714;28;20454;-50
2021/04/09 11:06:29;;;;;;;4.70;3.70;;;18.30;56.60;;;;;;5054424;28;20452;-49
2021/04/09 11:08:58;;;;;;;5.30;3.40;;;18.40;54.30;;;;;;5046002;28;20455;-49
2021/04/09 11:11:30;;;;;;;4.63;3.40;;;18.60;53.80;;;;;;5045556;28;20876;-49
2021/04/09 11:14:08;;;;;;;4.77;3.53;;;18.60;53.40;;;;;;5034392;28;20511;-49
2021/04/09 11:16:50;;;;;;;3.80;3.30;;;18.90;57.10;;;;;;5034258;28;20456;-49
2021/04/09 11:19:24;;;;;;;8.13;3.90;;;19.20;54.80;;;;;;5044418;28;20841;-49
2021/04/09 11:21:52;;;;;;;4.60;3.07;;;19.00;51.90;;;;;;5042991;28;21004;-49
2021/04/09 11:24:23;;;;;;;4.03;3.20;;;19.00;51.10;;;;;;5041593;28;20517;-49
2021/04/09 11:26:50;;;;;;;4.60;3.00;;;18.70;54.40;;;;;;5052885;28;20486;-49
2021/04/09 11:29:29;;;;;;;5.57;3.37;;;18.60;54.50;;;;;;5047727;28;20518;-49
2021/04/09 11:32:13;;;;;;;3.10;2.90;;;18.50;52.50;;;;;;5041614;28;20452;-49
2021/04/09 11:34:42;;;;;;;5.10;3.50;;;18.00;52.00;;;;;;5034422;28;20472;-49
2021/04/09 11:37:09;;;;;;;3.80;3.10;;;17.90;50.20;;;;;;5036152;28;20567;-49
2021/04/09 11:39:47;;;;;;;4.87;3.00;;;17.70;52.30;;;;;;5045506;28;20775;-49
2021/04/09 11:42:13;;;;;;;5.83;3.90;;;17.70;54.40;;;;;;5051740;28;20443;-49
2021/04/09 11:44:41;;;;;;;5.07;3.43;;;17.60;54.60;;;;;;5051722;28;20479;-49
2021/04/09 11:47:17;;;;;;;8.50;3.43;;;17.70;50.40;;;;;;5049194;28;20915;-49
2021/04/09 11:49:45;;;;;;;3.63;3.00;;;17.80;53.00;;;;;;5032957;28;20877;-49
2021/04/09 11:52:11;;;;;;;4.60;3.00;;;17.60;50.70;;;;;;5042673;28;20452;-49
2021/04/09 11:54:40;;;;;;;4.73;3.10;;;17.60;51.80;;;;;;5053905;28;20921;-49
2021/04/09 11:57:21;;;;;;;7.53;3.40;;;17.70;52.30;;;;;;5053111;28;21063;-49
2021/04/09 11:59:49;;;;;;;5.00;3.20;;;17.80;52.80;;;;;;5053170;28;20448;-49
2021/04/09 12:02:18;;;;;;;5.67;3.53;;;17.70;54.70;;;;;;5053420;28;20463;-49
2021/04/09 12:04:46;;;;;;;3.47;3.17;;;17.40;51.60;;;;;;5052430;28;20478;-49
2021/04/09 12:07:14;;;;;;;3.40;3.10;;;17.70;51.60;;;;;;5052733;28;20480;-49
2021/04/09 12:09:43;;;;;;;3.83;3.10;;;18.00;52.00;;;;;;5053042;28;20937;-49
2021/04/09 12:12:13;;;;;;;3.30;2.80;;;18.20;51.90;;;;;;5052815;28;20447;-49
2021/04/09 12:14:42;;;;;;;7.07;3.60;;;18.20;49.90;;;;;;5053086;28;20482;-49
2021/04/09 12:17:11;;;;;;;5.60;4.73;;;18.10;51.30;;;;;;5053086;28;20483;-49
2021/04/09 12:19:38;;;;;;;4.23;3.83;;;17.30;56.70;;;;;;5051639;28;20470;-49
2021/04/09 12:22:05;;;;;;;7.23;4.60;;;17.00;56.20;;;;;;5053088;28;20528;-49
2021/04/09 12:24:32;;;;;;;8.73;3.80;;;16.50;57.40;;;;;;5052803;28;20471;-49
2021/04/09 12:26:58;;;;;;;6.17;4.80;;;16.30;57.10;;;;;;5052909;28;20799;-49
2021/04/09 12:29:25;;;;;;;5.03;4.03;;;16.30;58.60;;;;;;5052706;28;20451;-49
2021/04/09 12:31:51;;;;;;;6.30;4.07;;;16.40;59.40;;;;;;5046687;28;20453;-49
2021/04/09 12:34:19;;;;;;;4.60;3.97;;;16.10;56.90;;;;;;5042125;28;21010;-48
2021/04/09 12:36:46;;;;;;;7.73;3.90;;;16.20;57.10;;;;;;5038971;28;20452;-48
2021/04/09 12:39:13;;;;;;;6.87;4.43;;;15.90;56.80;;;;;;5050761;28;20450;-49
2021/04/09 12:41:40;;;;;;;6.47;3.37;;;15.60;58.30;;;;;;5045560;28;20446;-48
2021/04/09 12:44:09;;;;;;;6.10;3.83;;;15.70;53.00;;;;;;5035822;28;20459;-49
2021/04/09 12:46:36;;;;;;;5.70;3.30;;;16.10;51.80;;;;;;5031822;28;20444;-49
2021/04/09 12:49:03;;;;;;;5.10;3.47;;;16.50;55.30;;;;;;5033194;28;20511;-48
2021/04/09 12:51:31;;;;;;;4.63;3.13;;;17.00;53.70;;;;;;5032581;28;20444;-49
2021/04/09 12:53:58;;;;;;;4.17;3.50;;;17.10;53.50;;;;;;5040827;28;20451;-49
2021/04/09 12:56:24;;;;;;;4.30;3.50;;;16.90;53.50;;;;;;5052520;28;20491;-50
2021/04/09 12:58:51;;;;;;;6.30;3.40;;;16.80;51.90;;;;;;5051770;28;20494;-50
2021/04/09 13:01:17;;;;;;;3.60;3.07;;;16.60;56.30;;;;;;5049174;28;20459;-49